AJB1180 SAZS-SAZY
Flight info
| Callsign | AJB1180 |
|---|---|
| Flight time | 0h 38m |
| Altitude | 20000 |
| Route | ALGIL1G ALGIL ALGIL1U |
| Aircraft | AT46/M-SDFGIRY/S |
Departure
| Time | 2026-05-08 19:07 |
|---|---|
| Airport | Teniente Luis Candelaria International Airport (SAZS) |
Arrival
| Time | 2026-05-08 19:46 |
|---|---|
| Airport | Aviador C. Campos Airport (SAZY) |
| Time | Latitude | Longitude | Altitude | Speed | Heading |
|---|---|---|---|---|---|
| 2026-05-08 18:50 | -41.14711 | -71.16269 | 2746 ft | 0 kts | 24° |
| 2026-05-08 19:03 | -41.14710 | -71.16267 | 2746 ft | 0 kts | 53° |
| 2026-05-08 19:03 | -41.14711 | -71.16260 | 2746 ft | 3 kts | 101° |
| 2026-05-08 19:03 | -41.14727 | -71.16240 | 2747 ft | 4 kts | 161° |
| 2026-05-08 19:03 | -41.14767 | -71.16259 | 2746 ft | 8 kts | 214° |
| 2026-05-08 19:04 | -41.14830 | -71.16302 | 2728 ft | 10 kts | 203° |
| 2026-05-08 19:04 | -41.14876 | -71.16334 | 2750 ft | 6 kts | 220° |
| 2026-05-08 19:04 | -41.14896 | -71.16432 | 2749 ft | 20 kts | 294° |
| 2026-05-08 19:04 | -41.14817 | -71.16642 | 2748 ft | 28 kts | 294° |
| 2026-05-08 19:05 | -41.14733 | -71.16862 | 2748 ft | 24 kts | 296° |
| 2026-05-08 19:05 | -41.14654 | -71.16979 | 2747 ft | 11 kts | 334° |
| 2026-05-08 19:05 | -41.14650 | -71.17024 | 2751 ft | 3 kts | 208° |
| 2026-05-08 19:05 | -41.14673 | -71.17022 | 2748 ft | 3 kts | 150° |
| 2026-05-08 19:06 | -41.14680 | -71.17008 | 2748 ft | 0 kts | 114° |
| 2026-05-08 19:06 | -41.14693 | -71.16973 | 2747 ft | 25 kts | 118° |
| 2026-05-08 19:07 | -41.14854 | -71.16512 | 2749 ft | 88 kts | 117° |
| 2026-05-08 19:07 | -41.15162 | -71.15578 | 3006 ft | 122 kts | 120° |
| 2026-05-08 19:07 | -41.15538 | -71.14494 | 3607 ft | 136 kts | 117° |
| 2026-05-08 19:07 | -41.15922 | -71.13290 | 4322 ft | 149 kts | 119° |
| 2026-05-08 19:08 | -41.16366 | -71.11981 | 4766 ft | 159 kts | 120° |
| 2026-05-08 19:08 | -41.16835 | -71.10652 | 5239 ft | 159 kts | 121° |
| 2026-05-08 19:08 | -41.17308 | -71.09316 | 5729 ft | 159 kts | 121° |
| 2026-05-08 19:08 | -41.17772 | -71.07980 | 6161 ft | 164 kts | 121° |
| 2026-05-08 19:09 | -41.18235 | -71.06560 | 6537 ft | 170 kts | 117° |
| 2026-05-08 19:09 | -41.18615 | -71.05051 | 7008 ft | 174 kts | 110° |
| 2026-05-08 19:09 | -41.18361 | -71.03411 | 7513 ft | 200 kts | 65° |
| 2026-05-08 19:09 | -41.17172 | -71.02284 | 7927 ft | 223 kts | 25° |
| 2026-05-08 19:10 | -41.15646 | -71.01752 | 8322 ft | 229 kts | 20° |
| 2026-05-08 19:10 | -41.14087 | -71.01261 | 8750 ft | 230 kts | 20° |
| 2026-05-08 19:10 | -41.12529 | -71.00740 | 9194 ft | 231 kts | 21° |
| 2026-05-08 19:10 | -41.10980 | -71.00158 | 9642 ft | 232 kts | 24° |
| 2026-05-08 19:11 | -41.09438 | -70.99508 | 10092 ft | 233 kts | 26° |
| 2026-05-08 19:11 | -41.07922 | -70.98819 | 10497 ft | 233 kts | 26° |
| 2026-05-08 19:11 | -41.06386 | -70.98105 | 10900 ft | 234 kts | 26° |
| 2026-05-08 19:11 | -41.04849 | -70.97389 | 11321 ft | 234 kts | 26° |
| 2026-05-08 19:12 | -41.03306 | -70.96676 | 11720 ft | 235 kts | 24° |
| 2026-05-08 19:12 | -41.01650 | -70.96602 | 12063 ft | 245 kts | 348° |
| 2026-05-08 19:12 | -41.00019 | -70.97284 | 12440 ft | 247 kts | 341° |
| 2026-05-08 19:12 | -40.98399 | -70.98055 | 12794 ft | 248 kts | 341° |
| 2026-05-08 19:13 | -40.96768 | -70.98801 | 13195 ft | 248 kts | 343° |
| 2026-05-08 19:13 | -40.95145 | -70.99506 | 13566 ft | 248 kts | 343° |
| 2026-05-08 19:13 | -40.93492 | -71.00205 | 13922 ft | 249 kts | 345° |
| 2026-05-08 19:13 | -40.91821 | -71.00843 | 14248 ft | 251 kts | 346° |
| 2026-05-08 19:14 | -40.90126 | -71.01449 | 14572 ft | 252 kts | 346° |
| 2026-05-08 19:14 | -40.88429 | -71.02060 | 14877 ft | 253 kts | 346° |
| 2026-05-08 19:14 | -40.86746 | -71.02673 | 15192 ft | 255 kts | 346° |
| 2026-05-08 19:14 | -40.85028 | -71.03301 | 15501 ft | 256 kts | 345° |
| 2026-05-08 19:15 | -40.83301 | -71.03934 | 15793 ft | 258 kts | 345° |
| 2026-05-08 19:15 | -40.81565 | -71.04566 | 16061 ft | 259 kts | 345° |
| 2026-05-08 19:15 | -40.79812 | -71.05201 | 16358 ft | 261 kts | 345° |
| 2026-05-08 19:15 | -40.78051 | -71.05828 | 16640 ft | 263 kts | 345° |
| 2026-05-08 19:16 | -40.76297 | -71.06447 | 16901 ft | 264 kts | 345° |
| 2026-05-08 19:16 | -40.74516 | -71.07080 | 17148 ft | 266 kts | 345° |
| 2026-05-08 19:16 | -40.72725 | -71.07713 | 17376 ft | 268 kts | 345° |
| 2026-05-08 19:16 | -40.71530 | -71.08142 | 17546 ft | 269 kts | 344° |
| 2026-05-08 19:17 | -40.69101 | -71.09024 | 17877 ft | 272 kts | 344° |
| 2026-05-08 19:17 | -40.67892 | -71.09468 | 18139 ft | 273 kts | 343° |
| 2026-05-08 19:17 | -40.66052 | -71.10142 | 18490 ft | 276 kts | 343° |
| 2026-05-08 19:17 | -40.63538 | -71.11047 | 18816 ft | 282 kts | 343° |
| 2026-05-08 19:18 | -40.62281 | -71.11503 | 18994 ft | 285 kts | 342° |
| 2026-05-08 19:18 | -40.60353 | -71.12203 | 19239 ft | 289 kts | 342° |
| 2026-05-08 19:18 | -40.58393 | -71.12914 | 19465 ft | 295 kts | 342° |
| 2026-05-08 19:18 | -40.56395 | -71.13638 | 19724 ft | 298 kts | 343° |
| 2026-05-08 19:19 | -40.54315 | -71.13943 | 19940 ft | 304 kts | 1° |
| 2026-05-08 19:19 | -40.52206 | -71.13747 | 20055 ft | 314 kts | 9° |
| 2026-05-08 19:19 | -40.49991 | -71.13386 | 20050 ft | 324 kts | 9° |
| 2026-05-08 19:19 | -40.47730 | -71.13059 | 20066 ft | 328 kts | 6° |
| 2026-05-08 19:20 | -40.45436 | -71.12876 | 20099 ft | 331 kts | 4° |
| 2026-05-08 19:20 | -40.43906 | -71.12789 | 20122 ft | 333 kts | 4° |
| 2026-05-08 19:20 | -40.40798 | -71.12604 | 20148 ft | 335 kts | 5° |
| 2026-05-08 19:20 | -40.38459 | -71.12410 | 20179 ft | 337 kts | 5° |
| 2026-05-08 19:21 | -40.36109 | -71.12197 | 20218 ft | 339 kts | 5° |
| 2026-05-08 19:21 | -40.33782 | -71.11989 | 20180 ft | 340 kts | 5° |
| 2026-05-08 19:21 | -40.31419 | -71.11775 | 20174 ft | 341 kts | 5° |
| 2026-05-08 19:21 | -40.29047 | -71.11564 | 20208 ft | 342 kts | 5° |
| 2026-05-08 19:22 | -40.26669 | -71.11353 | 20203 ft | 343 kts | 5° |
| 2026-05-08 19:22 | -40.24269 | -71.11139 | 19994 ft | 349 kts | 6° |
| 2026-05-08 19:22 | -40.21836 | -71.10917 | 19634 ft | 350 kts | 5° |
| 2026-05-08 19:22 | -40.19411 | -71.10711 | 19268 ft | 346 kts | 5° |
| 2026-05-08 19:23 | -40.17019 | -71.10510 | 18798 ft | 341 kts | 5° |
| 2026-05-08 19:23 | -40.14699 | -71.10313 | 18192 ft | 333 kts | 5° |
| 2026-05-08 19:23 | -40.12448 | -71.10127 | 17502 ft | 315 kts | 6° |
| 2026-05-08 19:23 | -40.10308 | -71.09948 | 16762 ft | 301 kts | 6° |
| 2026-05-08 19:24 | -40.08255 | -71.09771 | 15980 ft | 290 kts | 7° |
| 2026-05-08 19:24 | -40.06271 | -71.09611 | 15219 ft | 281 kts | 7° |
| 2026-05-08 19:24 | -40.04357 | -71.09699 | 14476 ft | 272 kts | 350° |
| 2026-05-08 19:24 | -40.02566 | -71.10451 | 13725 ft | 268 kts | 340° |
| 2026-05-08 19:25 | -40.00877 | -71.11377 | 12931 ft | 264 kts | 339° |
| 2026-05-08 19:25 | -39.99192 | -71.12316 | 12366 ft | 253 kts | 339° |
| 2026-05-08 19:25 | -39.97645 | -71.13121 | 12141 ft | 232 kts | 342° |
| 2026-05-08 19:25 | -39.96200 | -71.13829 | 12036 ft | 213 kts | 343° |
| 2026-05-08 19:26 | -39.94852 | -71.14466 | 11976 ft | 200 kts | 343° |
| 2026-05-08 19:26 | -39.93536 | -71.15094 | 11716 ft | 204 kts | 342° |
| 2026-05-08 19:26 | -39.92167 | -71.15759 | 11474 ft | 214 kts | 342° |
| 2026-05-08 19:26 | -39.90765 | -71.16442 | 11240 ft | 221 kts | 342° |
| 2026-05-08 19:27 | -39.89303 | -71.17153 | 10984 ft | 227 kts | 342° |
| 2026-05-08 19:27 | -39.87804 | -71.17886 | 10747 ft | 232 kts | 342° |
| 2026-05-08 19:27 | -39.86409 | -71.18933 | 10510 ft | 235 kts | 311° |
| 2026-05-08 19:27 | -39.85668 | -71.20788 | 10283 ft | 230 kts | 276° |
| 2026-05-08 19:28 | -39.85444 | -71.22874 | 10024 ft | 235 kts | 266° |
| 2026-05-08 19:28 | -39.85580 | -71.24940 | 9765 ft | 228 kts | 242° |
| 2026-05-08 19:28 | -39.86507 | -71.26500 | 9500 ft | 210 kts | 204° |
| 2026-05-08 19:28 | -39.87840 | -71.26981 | 9234 ft | 200 kts | 180° |
| 2026-05-08 19:29 | -39.89234 | -71.27079 | 8990 ft | 201 kts | 175° |
| 2026-05-08 19:29 | -39.90622 | -71.27045 | 8867 ft | 196 kts | 172° |
| 2026-05-08 19:29 | -39.91966 | -71.26912 | 8820 ft | 191 kts | 169° |
| 2026-05-08 19:29 | -39.93278 | -71.26674 | 8785 ft | 188 kts | 166° |
| 2026-05-08 19:30 | -39.94546 | -71.26265 | 8783 ft | 185 kts | 155° |
| 2026-05-08 19:30 | -39.95407 | -71.25107 | 8792 ft | 185 kts | 117° |
| 2026-05-08 19:30 | -39.95836 | -71.23512 | 8761 ft | 189 kts | 112° |
| 2026-05-08 19:30 | -39.96213 | -71.21831 | 8759 ft | 197 kts | 110° |
| 2026-05-08 19:31 | -39.96606 | -71.20081 | 8774 ft | 206 kts | 112° |
| 2026-05-08 19:31 | -39.97025 | -71.18226 | 8764 ft | 222 kts | 101° |
| 2026-05-08 19:31 | -39.96623 | -71.16187 | 8753 ft | 249 kts | 64° |
| 2026-05-08 19:31 | -39.95272 | -71.14650 | 8768 ft | 271 kts | 32° |
| 2026-05-08 19:32 | -39.93383 | -71.14172 | 8759 ft | 286 kts | 359° |
| 2026-05-08 19:32 | -39.91463 | -71.14922 | 8776 ft | 290 kts | 333° |
| 2026-05-08 19:32 | -39.89741 | -71.16225 | 8778 ft | 291 kts | 328° |
| 2026-05-08 19:32 | -39.88266 | -71.17994 | 8783 ft | 289 kts | 301° |
| 2026-05-08 19:33 | -39.87612 | -71.20404 | 8789 ft | 280 kts | 269° |
| 2026-05-08 19:33 | -39.87930 | -71.22823 | 8795 ft | 266 kts | 238° |
| 2026-05-08 19:33 | -39.89083 | -71.24580 | 8786 ft | 251 kts | 206° |
| 2026-05-08 19:33 | -39.90634 | -71.25455 | 8787 ft | 241 kts | 194° |
| 2026-05-08 19:34 | -39.92209 | -71.26218 | 8782 ft | 242 kts | 196° |
| 2026-05-08 19:34 | -39.93750 | -71.27156 | 8781 ft | 246 kts | 202° |
| 2026-05-08 19:34 | -39.95236 | -71.28292 | 8770 ft | 250 kts | 207° |
| 2026-05-08 19:34 | -39.96636 | -71.29669 | 8803 ft | 254 kts | 212° |
| 2026-05-08 19:35 | -39.97943 | -71.31227 | 8807 ft | 259 kts | 219° |
| 2026-05-08 19:35 | -39.99125 | -71.33032 | 8814 ft | 265 kts | 227° |
| 2026-05-08 19:35 | -40.00163 | -71.35042 | 8796 ft | 269 kts | 231° |
| 2026-05-08 19:35 | -40.01141 | -71.37140 | 8794 ft | 271 kts | 232° |
| 2026-05-08 19:36 | -40.02121 | -71.39243 | 8785 ft | 272 kts | 232° |
| 2026-05-08 19:36 | -40.03112 | -71.41339 | 8768 ft | 271 kts | 232° |
| 2026-05-08 19:36 | -40.04091 | -71.43399 | 8769 ft | 263 kts | 231° |
| 2026-05-08 19:36 | -40.05054 | -71.45392 | 8799 ft | 256 kts | 231° |
| 2026-05-08 19:37 | -40.06009 | -71.47335 | 8767 ft | 251 kts | 230° |
| 2026-05-08 19:37 | -40.06951 | -71.49234 | 8825 ft | 248 kts | 230° |
| 2026-05-08 19:37 | -40.08122 | -71.50764 | 8818 ft | 231 kts | 200° |
| 2026-05-08 19:37 | -40.09597 | -71.51142 | 8807 ft | 213 kts | 174° |
| 2026-05-08 19:38 | -40.11051 | -71.50954 | 8771 ft | 207 kts | 165° |
| 2026-05-08 19:38 | -40.12429 | -71.50495 | 8727 ft | 201 kts | 158° |
| 2026-05-08 19:38 | -40.13725 | -71.49868 | 8747 ft | 196 kts | 154° |
| 2026-05-08 19:38 | -40.14964 | -71.49207 | 8595 ft | 186 kts | 155° |
| 2026-05-08 19:39 | -40.16100 | -71.48612 | 8381 ft | 164 kts | 155° |
| 2026-05-08 19:39 | -40.17033 | -71.47981 | 8156 ft | 146 kts | 134° |
| 2026-05-08 19:39 | -40.17245 | -71.46697 | 7981 ft | 156 kts | 86° |
| 2026-05-08 19:39 | -40.17004 | -71.45296 | 7743 ft | 159 kts | 83° |
| 2026-05-08 19:40 | -40.16690 | -71.43896 | 7505 ft | 162 kts | 79° |
| 2026-05-08 19:40 | -40.16305 | -71.42506 | 7274 ft | 163 kts | 77° |
| 2026-05-08 19:40 | -40.15882 | -71.41122 | 7049 ft | 164 kts | 76° |
| 2026-05-08 19:40 | -40.15460 | -71.39748 | 6813 ft | 165 kts | 76° |
| 2026-05-08 19:41 | -40.15036 | -71.38350 | 6592 ft | 165 kts | 77° |
| 2026-05-08 19:41 | -40.14617 | -71.36943 | 6410 ft | 167 kts | 76° |
| 2026-05-08 19:41 | -40.14196 | -71.35532 | 6241 ft | 166 kts | 76° |
| 2026-05-08 19:41 | -40.13768 | -71.34133 | 5954 ft | 166 kts | 75° |
| 2026-05-08 19:42 | -40.13341 | -71.32722 | 5699 ft | 167 kts | 75° |
| 2026-05-08 19:42 | -40.12911 | -71.31323 | 5504 ft | 165 kts | 74° |
| 2026-05-08 19:42 | -40.12486 | -71.29959 | 5373 ft | 165 kts | 74° |
| 2026-05-08 19:42 | -40.12058 | -71.28576 | 5134 ft | 163 kts | 74° |
| 2026-05-08 19:43 | -40.11634 | -71.27213 | 4880 ft | 161 kts | 74° |
| 2026-05-08 19:43 | -40.11218 | -71.25865 | 4626 ft | 160 kts | 73° |
| 2026-05-08 19:43 | -40.10817 | -71.24517 | 4370 ft | 157 kts | 73° |
| 2026-05-08 19:43 | -40.10419 | -71.23199 | 4151 ft | 154 kts | 72° |
| 2026-05-08 19:44 | -40.10057 | -71.21934 | 3894 ft | 142 kts | 71° |
| 2026-05-08 19:44 | -40.09714 | -71.20770 | 3654 ft | 133 kts | 69° |
| 2026-05-08 19:44 | -40.09385 | -71.19665 | 3449 ft | 129 kts | 68° |
| 2026-05-08 19:44 | -40.09049 | -71.18622 | 3251 ft | 119 kts | 68° |
| 2026-05-08 19:45 | -40.08718 | -71.17681 | 3070 ft | 109 kts | 75° |
| 2026-05-08 19:45 | -40.08461 | -71.16791 | 2929 ft | 104 kts | 77° |
| 2026-05-08 19:45 | -40.08191 | -71.15902 | 2766 ft | 104 kts | 76° |
| 2026-05-08 19:45 | -40.07935 | -71.15054 | 2623 ft | 94 kts | 77° |
| 2026-05-08 19:46 | -40.07755 | -71.14436 | 2591 ft | 23 kts | 70° |
| 2026-05-08 19:46 | -40.07709 | -71.14301 | 2589 ft | 13 kts | 63° |
| 2026-05-08 19:46 | -40.07652 | -71.14134 | 2593 ft | 14 kts | 71° |
| 2026-05-08 19:47 | -40.07614 | -71.14005 | 2596 ft | 13 kts | 68° |
| 2026-05-08 19:47 | -40.07585 | -71.13920 | 2596 ft | 8 kts | 66° |
| 2026-05-08 19:47 | -40.07585 | -71.13853 | 2596 ft | 10 kts | 127° |
| 2026-05-08 19:47 | -40.07640 | -71.13866 | 2595 ft | 10 kts | 214° |
| 2026-05-08 19:48 | -40.07700 | -71.13918 | 2595 ft | 11 kts | 213° |
| 2026-05-08 19:48 | -40.07763 | -71.13972 | 2595 ft | 11 kts | 213° |
| 2026-05-08 19:48 | -40.07826 | -71.14026 | 2591 ft | 11 kts | 212° |
| 2026-05-08 19:48 | -40.07889 | -71.14080 | 2594 ft | 11 kts | 214° |
| 2026-05-08 19:49 | -40.07952 | -71.14136 | 2594 ft | 11 kts | 213° |
| 2026-05-08 19:49 | -40.08014 | -71.14189 | 2594 ft | 11 kts | 213° |
| 2026-05-08 19:49 | -40.08073 | -71.14234 | 2594 ft | 8 kts | 195° |
| 2026-05-08 19:49 | -40.08100 | -71.14225 | 2594 ft | 1 kts | 143° |
| 2026-05-08 19:50 | -40.08120 | -71.14208 | 2594 ft | 1 kts | 163° |
| 2026-05-08 19:50 | -40.08122 | -71.14210 | 2583 ft | 0 kts | 209° |
| 2026-05-08 19:50 | -40.08117 | -71.14228 | 2592 ft | 3 kts | 337° |
| 2026-05-08 19:50 | -40.08107 | -71.14235 | 2594 ft | 0 kts | 327° |